Борисово

Карта отелей и гостиниц, располагающихся рядом с аэропортом Борисово :

Борисово
Кобрин
Брестская область 52° 9' 50.58" N, 24° 23' 58.3188" E
Борисово
Кобрин
Брестская область 52° 9' 50.58" N, 24° 23' 58.3188" E
Код аэродрома ИКАО
UMBK
Код аэродрома RU
УМБК
Координаты
N52.16405° E024.39953°
Превышение над уровнем моря
142
Основная полоса
10/28
Курс магнитный
101,5/281,5
Длина основной ВПП
500
Ширина основной ВПП
20
Покрытие основной ВПП
Твёрдое (асфальт)
Освещение ВПП
Нет
Тип: 
Аэродром
Класс аэродрома: 
Принадлежность: 
АОН
Статус: 
Действующий
Сайт: 
E-mail аэродрома: 
Страна: 
Беларусь
Регион: 
Брестская область
Город: 
Кобрин
Дополнительная информация: 
Бывшая площадка АХР, ныне в аренде у местных авиаторов АОН ОО "Пятый океан".

Найти трансфер

С помощью этой формы Вы можете найти трансфер из аэропорта Борисово в город, аэропорт или вокзал:

Погода в аэропортах:

Авиационная погода в Самаре

Регион: 
Погода METAR: 
UWWW 221800Z 14005MPS 9000 -SN SCT033 M07/M10 Q1023 R15/420240 NOSIG RMK QFE755/1007
Время наблюдения
2022-01-22T18:00:00Z
Температура C
-7.0
Точка росы
-10.0
Направление ветра
140
Скорость ветра (узлы)
10
Метео видимость
5.59
Облачность
SCT
Нижняя граница облачности (футы)
3300
Явления погоды
-SN
Условия полета
VFR
Аэропорт подробнее: 
SCT – разбросанная отдельная облачность;
-SN – слабый снег;

Авиационная погода в Вадсё

Регион: 
Погода METAR: 
ENVD 221450Z 22018KT 9999 -SHSN FEW019 BKN023 M05/M08 Q1006
Время наблюдения
2022-01-22T14:50:00Z
Температура C
-5.0
Точка росы
-8.0
Направление ветра
220
Скорость ветра (узлы)
18
Метео видимость
6.21
Облачность
FEW
BKN
Нижняя граница облачности (футы)
1900
2300
Явления погоды
-SHSN
Условия полета
MVFR
FEW – незначительная облачность; BKN – значительная (рассеянная, разорванная) облачность;
-SHSN - слабый ливневой снег;

Авиационная погода в Талды-Коргане

Регион: 
Погода METAR: 
UAAT 221139Z 25002MPS 210V320 2700 BR FEW001 SCT200 M09/M12 Q1022 NOSIG RMK QBB050 QFE715/0953
Время наблюдения
2022-01-22T11:39:00Z
Температура C
-9.0
Точка росы
-12.0
Направление ветра
250
Скорость ветра (узлы)
4
Метео видимость
1.68
Облачность
FEW
SCT
Нижняя граница облачности (футы)
100
20000
Явления погоды
BR
Условия полета
IFR
Аэропорт подробнее: 
FEW – незначительная облачность; SCT – разбросанная отдельная облачность;
BR – дымка (видимость от 1 до 9 км);

Авиационная погода в Казани

Регион: 
Погода METAR: 
UWKD 221800Z 15007MPS 1900 R11/P2000N SN BLSN OVC021 M06/M08 Q1020 R11/451040 NOSIG RMK QFE755/1007
Время наблюдения
2022-01-22T18:00:00Z
Температура C
-6.0
Точка росы
-8.0
Направление ветра
150
Скорость ветра (узлы)
14
Метео видимость
1.18
Облачность
OVC
Нижняя граница облачности (футы)
2100
Явления погоды
SN BLSN
Условия полета
IFR
Аэропорт подробнее: 
OVC – сплошная облачность;
SN – снег, BLSN – метель низовая или общая;